Time;durP1;ratioP1;P1;durP2;ratioP2;P2;SDS_P1;SDS_P2;PMS_P1;PMS_P2;Temp;Humidity;BMP_temperature;BMP_pressure;BME280_temperature;BME280_humidity;BME280_pressure;Samples;Min_cycle;Max_cycle;Signal;HPM_P1;HPM_P2
2021/01/02 00:02:14;;;;;;;64.05;26.15;;;;;;;2.98;68.71;99795.56;5049506;28;20052;-56
2021/01/02 00:04:51;;;;;;;67.72;26.77;;;;;;;3.00;68.99;99788.41;5052747;28;20125;-53
2021/01/02 00:07:52;;;;;;;59.25;25.80;;;;;;;3.07;68.94;99788.97;5052446;28;21000;-54
2021/01/02 00:10:21;;;;;;;58.88;25.50;;;;;;;3.08;68.37;99787.16;5052834;28;20075;-55
2021/01/02 00:12:59;;;;;;;73.20;28.45;;;;;;;3.07;68.66;99782.81;5052807;28;20591;-55
2021/01/02 00:15:37;;;;;;;58.90;25.92;;;;;;;3.04;68.85;99793.53;5052948;28;20113;-55
2021/01/02 00:18:09;;;;;;;61.83;26.80;;;;;;;2.96;68.60;99776.28;5052650;28;20036;-55
2021/01/02 00:20:47;;;;;;;63.03;27.63;;;;;;;3.00;68.65;99787.53;5052479;28;20098;-56
2021/01/02 00:23:31;;;;;;;55.83;25.15;;;;;;;3.01;68.46;99783.94;5052156;28;20059;-53
2021/01/02 00:26:09;;;;;;;60.78;27.40;;;;;;;2.91;68.75;99761.56;5052972;28;20043;-53
2021/01/02 00:28:38;;;;;;;65.53;27.27;;;;;;;2.95;68.16;99765.75;5052263;28;20029;-57
2021/01/02 00:31:37;;;;;;;58.78;27.10;;;;;;;3.13;68.17;99785.13;5052082;28;20481;-54
2021/01/02 00:34:28;;;;;;;57.72;26.02;;;;;;;3.15;68.50;99796.53;5052158;28;20354;-51
2021/01/02 00:37:11;;;;;;;60.33;27.00;;;;;;;3.10;67.92;99788.81;5052126;28;20182;-57
2021/01/02 00:39:42;;;;;;;63.20;28.15;;;;;;;2.98;68.05;99784.97;5051754;28;20040;-59
2021/01/02 00:42:13;;;;;;;59.92;26.15;;;;;;;2.92;68.65;99782.66;5065692;28;20412;-55
2021/01/02 00:44:41;;;;;;;64.35;25.13;;;;;;;2.99;68.20;99799.03;5072083;28;20111;-54
2021/01/02 00:47:09;;;;;;;63.22;26.30;;;;;;;2.93;68.17;99775.56;5071875;28;20033;-52
2021/01/02 00:49:36;;;;;;;62.33;25.83;;;;;;;2.35;68.18;99700.84;5072022;28;20032;-54
2021/01/02 00:52:21;;;;;;;60.22;26.65;;;;;;;2.78;68.74;99770.13;5072272;28;20036;-50
2021/01/02 00:55:06;;;;;;;45.58;18.80;;;;;;;2.91;69.03;99778.28;5071799;28;20036;-53
2021/01/02 00:57:53;;;;;;;59.38;25.98;;;;;;;2.92;68.53;99766.78;5054014;28;20041;-54
2021/01/02 01:00:20;;;;;;;63.78;25.75;;;;;;;2.81;68.38;99747.94;5071683;28;20024;-54
2021/01/02 01:03:05;;;;;;;58.10;25.08;;;;;;;2.81;68.38;99758.50;5071955;28;20415;-51
2021/01/02 01:05:36;;;;;;;63.60;26.20;;;;;;;2.84;68.44;99768.94;5071421;28;20048;-53
2021/01/02 01:08:03;;;;;;;50.90;20.38;;;;;;;2.80;67.95;99764.72;5071566;28;20039;-54
2021/01/02 01:10:31;;;;;;;53.70;24.80;;;;;;;2.67;68.47;99780.34;5072146;28;20037;-56
2021/01/02 01:13:10;;;;;;;59.83;23.90;;;;;;;2.66;68.91;99761.00;5071530;28;20052;-57
2021/01/02 01:15:35;;;;;;;58.75;26.42;;;;;;;2.67;68.69;99783.84;5070811;28;20025;-56
2021/01/02 01:18:04;;;;;;;55.55;23.77;;;;;;;2.61;68.83;99775.34;5071600;28;20132;-58
2021/01/02 01:20:30;;;;;;;53.20;21.75;;;;;;;2.61;69.24;99770.06;5071718;28;20507;-52
2021/01/02 01:23:25;;;;;;;44.30;22.23;;;;;;;2.71;69.20;99776.59;5071993;28;20036;-52
2021/01/02 01:25:51;;;;;;;49.03;21.83;;;;;;;2.66;68.10;99754.84;5070977;28;20895;-55
2021/01/02 01:28:23;;;;;;;45.90;21.35;;;;;;;2.66;68.38;99789.19;5071151;28;20032;-48
2021/01/02 01:30:52;;;;;;;46.67;21.27;;;;;;;2.65;68.23;99780.44;5071429;28;20031;-49
2021/01/02 01:33:27;;;;;;;38.08;16.83;;;;;;;2.76;67.71;99789.63;5071292;28;20039;-50
2021/01/02 01:35:59;;;;;;;45.67;19.48;;;;;;;2.64;67.31;99786.63;5071202;28;20052;-48
2021/01/02 01:38:27;;;;;;;43.55;20.80;;;;;;;2.48;68.08;99807.66;5070894;28;20068;-49
2021/01/02 01:41:12;;;;;;;45.58;21.30;;;;;;;2.46;69.03;99784.88;5071274;28;20393;-57
2021/01/02 01:43:49;;;;;;;43.53;20.27;;;;;;;2.50;68.71;99773.22;5070921;28;20029;-53
2021/01/02 01:46:16;;;;;;;49.05;22.88;;;;;;;2.48;68.13;99770.66;5070917;28;20135;-51
2021/01/02 01:49:10;;;;;;;46.40;21.20;;;;;;;2.47;68.33;99768.94;5070652;28;20029;-54
2021/01/02 01:51:54;;;;;;;46.67;20.73;;;;;;;1.88;68.82;99686.31;5070375;28;20036;-54
2021/01/02 01:54:57;;;;;;;47.28;19.23;;;;;;;2.40;68.97;99764.88;5070693;28;20043;-55
2021/01/02 01:57:25;;;;;;;45.60;21.73;;;;;;;0.91;68.59;99516.59;5070248;28;20554;-55
2021/01/02 02:00:17;;;;;;;46.35;21.40;;;;;;;2.37;69.09;99763.22;5070535;28;20024;-52
2021/01/02 02:02:46;;;;;;;45.20;21.40;;;;;;;2.40;68.87;99759.59;5070083;28;20079;-52
2021/01/02 02:05:20;;;;;;;45.13;20.02;;;;;;;2.45;68.54;99760.22;5069801;28;20075;-51
2021/01/02 02:08:03;;;;;;;52.72;22.95;;;;;;;2.49;68.77;99764.44;5070577;28;20546;-55
2021/01/02 02:10:31;;;;;;;48.78;22.88;;;;;;;2.47;68.97;99757.53;5070381;28;20062;-54
2021/01/02 02:12:58;;;;;;;48.88;22.92;;;;;;;2.46;68.73;99756.66;5070296;28;20040;-52
2021/01/02 02:15:29;;;;;;;49.33;21.38;;;;;;;2.53;68.53;99778.38;5070491;28;20033;-55
2021/01/02 02:18:18;;;;;;;51.17;22.23;;;;;;;2.46;69.07;99755.81;5070035;28;20055;-52
2021/01/02 02:20:51;;;;;;;43.20;20.20;;;;;;;2.42;68.63;99769.19;5021569;28;20044;-52
2021/01/02 02:23:42;;;;;;;47.30;22.13;;;;;;;2.35;68.70;99765.09;5070049;28;20123;-52
2021/01/02 02:26:26;;;;;;;46.63;21.33;;;;;;;2.40;68.59;99767.53;5068837;28;20403;-50
2021/01/02 02:29:24;;;;;;;49.50;23.25;;;;;;;2.40;69.20;99767.53;5070036;28;20094;-49
2021/01/02 02:31:55;;;;;;;48.08;21.42;;;;;;;2.41;68.87;99769.25;5069685;28;20032;-54
2021/01/02 02:34:22;;;;;;;49.65;21.55;;;;;;;2.31;68.51;99744.19;5069460;28;20036;-53
2021/01/02 02:36:47;;;;;;;50.90;21.65;;;;;;;2.41;68.57;99758.66;5069825;28;20042;-49
2021/01/02 02:39:15;;;;;;;50.28;22.58;;;;;;;2.29;68.34;99744.25;5069997;28;20452;-51
2021/01/02 02:41:52;;;;;;;47.47;21.58;;;;;;;2.10;68.69;99731.91;5070057;28;20123;-57
2021/01/02 02:44:24;;;;;;;50.50;22.50;;;;;;;2.36;69.35;99761.53;5070104;28;20574;-54
2021/01/02 02:47:00;;;;;;;46.40;21.63;;;;;;;2.32;68.95;99749.38;5069913;28;20036;-55
2021/01/02 02:49:30;;;;;;;45.70;22.00;;;;;;;1.92;68.46;99682.59;5051791;28;20635;-55
2021/01/02 02:52:11;;;;;;;49.30;21.30;;;;;;;2.47;68.99;99763.66;5069720;28;20903;-52
2021/01/02 02:54:37;;;;;;;44.92;21.27;;;;;;;2.49;68.59;99766.22;5069928;28;20025;-58
2021/01/02 02:57:02;;;;;;;44.72;20.25;;;;;;;2.36;68.65;99744.81;5070320;28;20035;-54
2021/01/02 02:59:28;;;;;;;45.90;20.85;;;;;;;2.10;68.59;99687.00;5070034;28;20119;-53
2021/01/02 03:01:53;;;;;;;47.60;22.20;;;;;;;2.28;68.69;99711.69;5069556;28;20052;-54
2021/01/02 03:04:19;;;;;;;45.35;22.05;;;;;;;2.51;68.69;99735.31;5069547;28;20036;-54
2021/01/02 03:06:45;;;;;;;45.28;21.60;;;;;;;2.53;68.53;99726.38;5069621;28;20155;-54
2021/01/02 03:09:11;;;;;;;47.38;22.90;;;;;;;2.60;68.50;99745.41;5070013;28;20028;-52
2021/01/02 03:11:36;;;;;;;44.92;21.40;;;;;;;2.48;68.11;99722.25;5069858;28;20442;-54
2021/01/02 03:14:02;;;;;;;48.80;21.00;;;;;;;2.36;67.76;99737.75;5069633;28;20040;-54
2021/01/02 03:16:27;;;;;;;40.85;20.05;;;;;;;2.36;68.03;99723.69;5069544;28;20059;-56
2021/01/02 03:18:53;;;;;;;43.28;21.08;;;;;;;2.36;68.08;99724.53;5069601;28;20419;-55
2021/01/02 03:21:18;;;;;;;36.22;19.80;;;;;;;2.44;68.67;99748.81;5069804;28;20036;-51
2021/01/02 03:23:48;;;;;;;43.38;21.45;;;;;;;2.49;68.16;99745.09;5069454;28;20165;-53
2021/01/02 03:26:17;;;;;;;44.25;22.58;;;;;;;2.51;68.29;99745.88;5069590;28;20065;-53
2021/01/02 03:28:52;;;;;;;49.20;22.52;;;;;;;2.54;68.48;99748.38;5069596;28;20078;-58
2021/01/02 03:31:19;;;;;;;39.53;19.42;;;;;;;2.49;67.92;99743.28;5069827;28;20403;-51
2021/01/02 03:33:45;;;;;;;42.13;19.48;;;;;;;2.55;68.20;99745.66;5069199;28;20495;-54
2021/01/02 03:36:11;;;;;;;40.15;19.55;;;;;;;2.58;68.01;99752.56;5069816;28;20086;-51
2021/01/02 03:38:38;;;;;;;39.90;20.60;;;;;;;2.33;67.86;99732.59;5073138;28;20032;-52
2021/01/02 03:41:03;;;;;;;41.17;20.23;;;;;;;2.56;67.21;99752.66;5073177;28;20074;-50
2021/01/02 03:43:29;;;;;;;40.42;20.15;;;;;;;2.52;67.73;99755.50;5073249;28;20996;-56
2021/01/02 03:45:54;;;;;;;37.15;17.90;;;;;;;2.54;67.88;99765.09;5073299;28;20036;-56
2021/01/02 03:48:20;;;;;;;33.53;16.55;;;;;;;2.53;67.42;99767.78;5072994;28;20032;-53
2021/01/02 03:50:46;;;;;;;35.40;18.23;;;;;;;2.38;67.20;99751.72;5073187;28;20491;-56
2021/01/02 03:53:12;;;;;;;40.70;19.23;;;;;;;2.39;67.49;99742.03;5055207;28;20059;-56
2021/01/02 03:55:37;;;;;;;35.25;17.95;;;;;;;2.52;67.25;99750.22;5073587;28;20033;-56
2021/01/02 03:58:03;;;;;;;37.33;18.20;;;;;;;2.53;67.77;99759.88;5073229;28;20113;-58
2021/01/02 04:00:29;;;;;;;38.00;18.83;;;;;;;2.52;67.10;99747.59;5072947;28;20036;-51
2021/01/02 04:02:54;;;;;;;41.15;19.45;;;;;;;2.47;66.91;99741.66;5072932;28;20205;-52
2021/01/02 04:05:20;;;;;;;40.95;19.70;;;;;;;2.22;67.16;99711.16;5072872;28;20051;-57
2021/01/02 04:07:45;;;;;;;44.55;21.15;;;;;;;2.61;67.08;99776.19;5073098;28;20044;-53
2021/01/02 04:10:11;;;;;;;45.88;20.80;;;;;;;2.46;67.02;99753.16;5073270;28;20047;-57
2021/01/02 04:12:36;;;;;;;45.50;20.45;;;;;;;2.33;67.15;99740.53;5072973;28;20036;-58
2021/01/02 04:15:03;;;;;;;44.17;20.50;;;;;;;2.39;67.74;99755.25;5072916;28;20055;-57
2021/01/02 04:17:29;;;;;;;41.97;19.55;;;;;;;2.39;67.58;99766.66;5073026;28;20036;-52
2021/01/02 04:19:54;;;;;;;35.92;17.88;;;;;;;2.39;67.72;99763.16;5072827;28;20032;-55
2021/01/02 04:22:20;;;;;;;40.40;19.65;;;;;;;2.35;67.59;99762.44;5072600;28;20040;-56
2021/01/02 04:24:45;;;;;;;37.83;17.27;;;;;;;2.43;67.69;99759.44;5072676;28;20032;-59
2021/01/02 04:27:10;;;;;;;36.13;18.10;;;;;;;2.38;66.90;99746.44;5072753;28;20119;-58
2021/01/02 04:29:36;;;;;;;35.72;17.23;;;;;;;2.35;66.72;99751.03;5072125;28;20070;-53
2021/01/02 04:32:02;;;;;;;35.20;17.42;;;;;;;2.35;67.03;99753.69;5072399;28;20050;-54
2021/01/02 04:34:28;;;;;;;40.17;19.35;;;;;;;2.37;67.15;99779.09;5072670;28;20123;-53
2021/01/02 04:36:53;;;;;;;40.15;17.95;;;;;;;2.46;66.90;99774.31;5072445;28;20479;-55
2021/01/02 04:39:19;;;;;;;41.40;20.55;;;;;;;2.34;67.43;99759.91;5072384;28;20380;-57
2021/01/02 04:41:46;;;;;;;48.75;21.35;;;;;;;2.43;66.88;99762.97;5072061;28;20091;-51
2021/01/02 04:44:11;;;;;;;43.83;20.08;;;;;;;2.32;66.99;99759.97;5072857;28;20040;-50
2021/01/02 04:46:37;;;;;;;42.30;19.40;;;;;;;1.93;67.00;99694.88;5071718;28;20458;-55
2021/01/02 04:49:07;;;;;;;41.50;20.00;;;;;;;2.35;67.03;99753.69;5072019;28;20050;-55
2021/01/02 04:51:32;;;;;;;38.00;17.90;;;;;;;2.47;67.00;99770.75;5072498;28;20082;-55
2021/01/02 04:54:05;;;;;;;37.55;19.00;;;;;;;2.41;67.02;99761.31;5071768;28;20029;-56
2021/01/02 04:56:36;;;;;;;38.00;18.60;;;;;;;2.37;67.22;99757.94;5072026;28;20028;-55
2021/01/02 04:59:07;;;;;;;37.03;18.05;;;;;;;2.34;66.89;99746.69;5071877;28;20032;-53
2021/01/02 05:01:36;;;;;;;36.00;17.95;;;;;;;2.11;66.89;99691.38;5071708;28;20032;-59
2021/01/02 05:04:01;;;;;;;42.70;20.50;;;;;;;2.36;66.59;99740.38;5072082;28;20049;-56
2021/01/02 05:06:27;;;;;;;39.53;18.95;;;;;;;2.47;66.87;99768.09;5071611;28;20040;-54
2021/01/02 05:08:52;;;;;;;39.35;19.20;;;;;;;2.46;67.36;99763.75;5071951;28;20041;-55
2021/01/02 05:11:18;;;;;;;36.47;18.33;;;;;;;2.39;67.42;99764.00;5071957;28;20119;-56
2021/01/02 05:13:45;;;;;;;36.17;18.17;;;;;;;2.37;67.17;99770.31;5072314;28;20132;-57
2021/01/02 05:16:19;;;;;;;34.75;16.95;;;;;;;2.42;67.70;99769.19;5053779;28;20028;-55
2021/01/02 05:18:58;;;;;;;38.78;18.80;;;;;;;1.96;67.29;99687.66;5071705;28;20048;-58
2021/01/02 05:21:25;;;;;;;37.20;17.35;;;;;;;2.44;67.02;99769.09;5071746;28;20518;-58
2021/01/02 05:24:09;;;;;;;37.03;18.13;;;;;;;2.36;67.00;99756.22;5071924;28;20128;-52
2021/01/02 05:26:43;;;;;;;30.13;14.82;;;;;;;2.24;67.17;99746.28;5071294;28;20044;-56
2021/01/02 05:29:22;;;;;;;28.40;16.02;;;;;;;2.28;67.27;99761.88;5071315;28;20426;-56
2021/01/02 05:31:48;;;;;;;33.15;16.45;;;;;;;0.95;66.94;99546.31;5071494;28;20044;-56
2021/01/02 05:34:15;;;;;;;30.92;16.13;;;;;;;2.15;67.46;99752.84;5071554;28;20119;-59
2021/01/02 05:36:41;;;;;;;32.67;16.55;;;;;;;1.81;67.76;99710.38;5071622;28;20408;-53
2021/01/02 05:39:11;;;;;;;29.65;15.55;;;;;;;2.23;67.39;99755.13;5071280;28;20036;-57
2021/01/02 05:41:49;;;;;;;26.30;14.27;;;;;;;2.30;67.38;99761.81;5070537;28;20437;-54
2021/01/02 05:44:15;;;;;;;31.17;15.95;;;;;;;2.26;67.31;99761.09;5071149;28;20041;-54
2021/01/02 05:46:49;;;;;;;33.42;16.50;;;;;;;2.25;67.64;99758.53;5070894;28;20041;-57
2021/01/02 05:49:30;;;;;;;30.90;16.90;;;;;;;2.25;67.42;99761.19;5071304;28;20035;-59
2021/01/02 05:52:02;;;;;;;31.60;16.17;;;;;;;2.23;68.30;99761.25;5071053;28;20028;-53
2021/01/02 05:54:30;;;;;;;32.08;15.65;;;;;;;2.30;67.72;99775.03;5070872;28;20041;-61
2021/01/02 05:56:59;;;;;;;30.88;17.20;;;;;;;2.31;67.52;99758.25;5070913;28;20037;-56
2021/01/02 05:59:31;;;;;;;30.25;16.67;;;;;;;2.32;67.83;99759.13;5070317;28;20036;-55
2021/01/02 06:01:56;;;;;;;31.00;15.77;;;;;;;2.40;67.21;99778.09;5070643;28;20507;-55
2021/01/02 06:04:22;;;;;;;33.15;15.93;;;;;;;2.25;66.92;99748.81;5070524;28;20040;-56
2021/01/02 06:07:06;;;;;;;30.30;15.82;;;;;;;2.21;67.93;99754.34;5070598;28;20489;-52
2021/01/02 06:09:36;;;;;;;31.10;15.98;;;;;;;2.29;67.62;99760.09;5070650;28;20075;-57
2021/01/02 06:12:04;;;;;;;27.67;14.73;;;;;;;2.25;67.14;99763.84;5070726;28;20392;-52
2021/01/02 06:14:34;;;;;;;27.70;15.23;;;;;;;2.23;67.42;99763.88;5070081;28;20693;-59
2021/01/02 06:17:06;;;;;;;26.08;14.70;;;;;;;2.27;67.83;99768.09;5070211;28;20052;-51
2021/01/02 06:19:33;;;;;;;25.88;14.82;;;;;;;2.23;67.72;99757.75;5070079;28;20082;-57
2021/01/02 06:21:59;;;;;;;32.30;15.73;;;;;;;2.28;67.34;99759.25;5069728;28;20056;-53
2021/01/02 06:24:25;;;;;;;27.80;15.82;;;;;;;2.22;67.90;99759.53;5069973;28;20029;-54
2021/01/02 06:26:52;;;;;;;29.95;15.73;;;;;;;2.18;67.76;99755.34;5069967;28;20090;-55
2021/01/02 06:29:17;;;;;;;28.25;15.55;;;;;;;1.98;67.54;99719.31;5070596;28;20464;-50
2021/01/02 06:31:43;;;;;;;30.48;15.55;;;;;;;2.31;67.76;99757.41;5070413;28;20093;-52
2021/01/02 06:34:10;;;;;;;28.95;16.23;;;;;;;2.38;66.84;99764.94;5070196;28;20037;-53
2021/01/02 06:36:37;;;;;;;29.42;16.13;;;;;;;1.81;67.46;99669.91;5070405;28;20115;-51
2021/01/02 06:39:24;;;;;;;27.65;15.45;;;;;;;2.37;67.56;99757.94;5070519;28;20036;-51
2021/01/02 06:41:52;;;;;;;29.50;15.27;;;;;;;2.42;66.76;99771.81;5070046;28;20120;-55
2021/01/02 06:44:57;;;;;;;32.13;16.40;;;;;;;2.31;67.64;99767.97;5069912;28;20045;-56
2021/01/02 06:47:31;;;;;;;36.05;16.35;;;;;;;2.22;67.51;99779.81;4969025;28;20042;-58
2021/01/02 06:49:56;;;;;;;33.90;16.33;;;;;;;2.26;67.51;99776.94;4969399;28;20045;-59
2021/01/02 06:52:33;;;;;;;29.75;16.30;;;;;;;2.24;67.62;99773.53;5021414;28;20040;-52
2021/01/02 06:55:21;;;;;;;30.08;15.60;;;;;;;2.29;67.63;99775.97;5069580;28;20056;-57
2021/01/02 06:57:48;;;;;;;29.88;15.80;;;;;;;2.21;67.36;99776.31;5070411;28;20039;-57
2021/01/02 07:00:27;;;;;;;34.05;16.48;;;;;;;2.18;67.85;99775.63;5069770;28;20029;-56
2021/01/02 07:02:55;;;;;;;30.08;16.10;;;;;;;2.22;67.59;99774.53;5069174;28;20048;-56
2021/01/02 07:05:49;;;;;;;32.03;15.77;;;;;;;2.28;68.05;99775.09;5051310;28;20051;-57
2021/01/02 07:08:39;;;;;;;27.50;15.55;;;;;;;2.30;67.51;99772.38;5069878;28;20028;-57
2021/01/02 07:11:30;;;;;;;27.45;15.00;;;;;;;2.29;67.89;99775.97;5069202;28;20028;-53
2021/01/02 07:14:07;;;;;;;29.00;15.60;;;;;;;2.30;67.77;99782.97;5069517;28;20033;-56
2021/01/02 07:16:38;;;;;;;29.70;15.93;;;;;;;2.29;67.42;99782.13;5069748;28;20067;-55
2021/01/02 07:19:05;;;;;;;31.33;16.70;;;;;;;2.17;67.36;99763.31;5070036;28;20033;-51
2021/01/02 07:21:37;;;;;;;35.53;18.58;;;;;;;2.24;67.48;99767.41;5069205;28;20608;-56
2021/01/02 07:24:21;;;;;;;29.55;15.80;;;;;;;2.35;67.57;99780.09;5069252;28;20539;-56
2021/01/02 07:26:48;;;;;;;31.45;16.60;;;;;;;2.30;67.29;99777.66;5069868;28;20123;-53
2021/01/02 07:29:19;;;;;;;33.97;18.25;;;;;;;2.18;67.69;99768.53;5068984;28;20078;-61
2021/01/02 07:31:45;;;;;;;29.85;16.52;;;;;;;2.33;67.40;99787.25;5068450;28;20037;-59
2021/01/02 07:34:23;;;;;;;33.35;16.48;;;;;;;2.39;67.33;99787.78;5069528;28;20115;-61
2021/01/02 07:36:51;;;;;;;31.48;16.85;;;;;;;2.45;67.36;99791.94;5069839;28;20041;-61
2021/01/02 07:39:18;;;;;;;33.30;17.10;;;;;;;2.51;66.37;99790.81;5069587;28;20040;-62
2021/01/02 07:41:44;;;;;;;29.13;16.05;;;;;;;2.52;66.92;99788.06;5069423;28;20400;-61
2021/01/02 07:44:11;;;;;;;28.95;16.30;;;;;;;2.55;67.17;99787.06;5069176;28;20032;-62
2021/01/02 07:46:44;;;;;;;28.63;16.08;;;;;;;2.59;66.39;99793.91;5069108;28;20044;-60
2021/01/02 07:49:10;;;;;;;30.60;16.55;;;;;;;2.60;66.47;99790.34;5068737;28;20041;-62
2021/01/02 07:51:36;;;;;;;34.00;17.00;;;;;;;2.56;66.74;99804.66;5068697;28;20539;-63
2021/01/02 07:54:02;;;;;;;27.38;15.43;;;;;;;2.57;66.80;99791.38;5069058;28;20163;-62
2021/01/02 07:56:38;;;;;;;32.13;17.40;;;;;;;2.66;65.82;99790.06;5069041;28;20040;-61
2021/01/02 07:59:20;;;;;;;34.22;17.08;;;;;;;2.68;65.67;99809.34;5069264;28;20037;-61
2021/01/02 08:01:59;;;;;;;34.58;16.75;;;;;;;2.66;66.23;99794.50;5068903;28;20044;-60
2021/01/02 08:04:26;;;;;;;35.50;17.83;;;;;;;2.69;66.15;99797.84;5068909;28;20045;-57
2021/01/02 08:06:54;;;;;;;29.95;16.38;;;;;;;2.79;65.69;99795.63;5069381;28;20048;-60
2021/01/02 08:09:20;;;;;;;33.03;18.58;;;;;;;2.67;65.68;99772.41;5069676;28;20032;-61
2021/01/02 08:11:52;;;;;;;31.65;16.60;;;;;;;2.80;65.99;99796.47;5068800;28;20063;-62
2021/01/02 08:14:19;;;;;;;34.28;18.00;;;;;;;2.86;65.72;99790.88;5068664;28;20033;-62
2021/01/02 08:16:56;;;;;;;29.67;17.05;;;;;;;2.93;65.43;99799.34;5069196;28;20039;-62
2021/01/02 08:19:21;;;;;;;33.25;17.63;;;;;;;2.97;65.43;99798.28;5069098;28;20435;-60
2021/01/02 08:21:47;;;;;;;32.88;17.77;;;;;;;3.01;65.24;99800.69;5068704;28;20155;-61
2021/01/02 08:24:13;;;;;;;33.35;18.55;;;;;;;3.02;65.11;99801.56;5071832;28;20089;-62
2021/01/02 08:26:39;;;;;;;34.97;18.25;;;;;;;2.96;65.14;99792.13;5072531;28;20040;-62
2021/01/02 08:29:06;;;;;;;31.85;18.15;;;;;;;2.91;65.46;99788.88;5072490;28;20090;-63
2021/01/02 08:31:33;;;;;;;34.97;18.60;;;;;;;2.83;65.08;99769.88;5071947;28;20125;-65
2021/01/02 08:34:01;;;;;;;37.85;18.73;;;;;;;2.99;65.12;99813.13;5072432;28;20537;-61
2021/01/02 08:36:27;;;;;;;36.13;19.05;;;;;;;2.55;64.69;99718.34;5072072;28;20036;-60
2021/01/02 08:38:57;;;;;;;35.65;19.25;;;;;;;2.94;63.76;99782.56;5072080;28;20104;-61
2021/01/02 08:41:25;;;;;;;38.17;20.10;;;;;;;2.85;64.30;99781.22;5072497;28;20040;-61
2021/01/02 08:43:54;;;;;;;38.10;19.02;;;;;;;2.70;64.56;99786.34;5072588;28;20039;-61
2021/01/02 08:46:23;;;;;;;37.20;19.15;;;;;;;2.69;64.47;99796.97;5072041;28;20097;-62
2021/01/02 08:48:49;;;;;;;40.65;20.42;;;;;;;2.71;65.39;99788.06;5071535;28;20097;-61
2021/01/02 08:51:25;;;;;;;40.00;19.63;;;;;;;2.83;64.92;99797.19;5071337;28;20035;-62
2021/01/02 08:53:51;;;;;;;;;;;;;;;3.11;64.47;99789.63;5071422;28;20089;-62
2021/01/02 08:56:23;;;;;;;;;;;;;;;3.27;64.33;99779.16;5071640;28;20038;-60
2021/01/02 08:58:48;;;;;;;35.42;18.30;;;;;;;3.27;64.06;99793.22;5070521;28;20348;-57
2021/01/02 09:01:14;;;;;;;41.28;20.05;;;;;;;3.25;64.20;99776.59;5071635;28;20086;-61
2021/01/02 09:03:39;;;;;;;38.00;19.83;;;;;;;3.31;63.24;99791.28;5071915;28;20493;-63
2021/01/02 09:06:26;;;;;;;37.95;19.83;;;;;;;3.39;63.69;99770.56;5071912;28;20091;-62
2021/01/02 09:09:03;;;;;;;38.67;19.80;;;;;;;3.42;63.49;99775.72;5071145;28;20447;-61
2021/01/02 09:11:44;;;;;;;35.67;19.90;;;;;;;3.34;63.67;99769.09;5071728;28;20051;-57
2021/01/02 09:14:09;;;;;;;36.38;19.67;;;;;;;3.47;64.17;99778.13;5070475;28;20068;-60
2021/01/02 09:16:35;;;;;;;39.15;20.38;;;;;;;3.45;63.56;99764.13;5071517;28;20082;-61
2021/01/02 09:19:00;;;;;;;37.90;20.67;;;;;;;3.41;63.50;99792.53;5070631;28;20470;-62
2021/01/02 09:21:27;;;;;;;40.17;20.90;;;;;;;3.36;63.68;99783.09;5071666;28;20036;-62
2021/01/02 09:23:53;;;;;;;38.90;19.85;;;;;;;3.28;63.73;99757.91;5071175;28;20025;-65
2021/01/02 09:26:32;;;;;;;38.10;20.45;;;;;;;3.37;63.07;99780.38;5070932;28;20037;-64
2021/01/02 09:29:00;;;;;;;38.70;19.35;;;;;;;3.42;63.97;99780.16;5053583;28;20035;-64
2021/01/02 09:31:26;;;;;;;37.67;20.13;;;;;;;3.43;63.63;99785.34;5071142;28;20033;-63
2021/01/02 09:33:53;;;;;;;39.08;19.85;;;;;;;3.40;63.77;99787.31;5070843;28;20060;-64
2021/01/02 09:36:21;;;;;;;38.33;19.85;;;;;;;3.40;63.25;99779.38;5052377;28;20514;-61
2021/01/02 09:38:47;;;;;;;34.60;19.98;;;;;;;3.37;63.46;99777.75;5070684;28;20404;-61
2021/01/02 09:41:17;;;;;;;35.92;18.48;;;;;;;3.39;63.49;99788.25;5070971;28;20135;-62
2021/01/02 09:43:43;;;;;;;32.65;17.58;;;;;;;3.30;63.09;99769.25;5070899;28;20035;-58
2021/01/02 09:46:16;;;;;;;36.58;18.83;;;;;;;3.27;63.24;99764.13;5070643;28;20036;-61
2021/01/02 09:48:47;;;;;;;35.50;19.05;;;;;;;3.34;63.26;99772.63;5070880;28;20507;-60
2021/01/02 09:51:13;;;;;;;36.58;18.70;;;;;;;3.36;63.49;99783.09;5070696;28;20043;-61
2021/01/02 09:53:38;;;;;;;37.03;19.63;;;;;;;3.25;63.40;99760.72;5070438;28;20044;-60
2021/01/02 09:56:04;;;;;;;34.58;18.98;;;;;;;3.22;62.95;99771.44;5071013;28;20134;-59
2021/01/02 09:58:30;;;;;;;37.75;19.58;;;;;;;3.35;63.22;99786.69;5070937;28;20032;-61
2021/01/02 10:00:55;;;;;;;38.75;19.23;;;;;;;3.35;63.05;99790.19;5070783;28;20131;-64
2021/01/02 10:03:21;;;;;;;34.97;19.23;;;;;;;3.39;62.44;99782.97;5070852;28;20062;-61
2021/01/02 10:05:46;;;;;;;35.83;19.42;;;;;;;3.32;62.88;99777.13;5069625;28;20053;-61
2021/01/02 10:08:11;;;;;;;37.95;18.77;;;;;;;3.18;63.25;99767.25;5068903;28;20036;-63
2021/01/02 10:10:37;;;;;;;35.03;18.48;;;;;;;3.32;63.66;99782.44;5070493;28;20036;-62
2021/01/02 10:13:03;;;;;;;37.22;19.13;;;;;;;3.38;63.62;99782.09;5070437;28;20034;-60
2021/01/02 10:15:29;;;;;;;34.95;17.63;;;;;;;3.46;63.47;99784.34;5070460;28;20476;-62
2021/01/02 10:17:55;;;;;;;32.80;18.17;;;;;;;3.46;62.92;99755.25;5070297;28;20115;-62
2021/01/02 10:20:21;;;;;;;33.75;19.25;;;;;;;3.53;63.06;99769.03;5070407;28;20064;-61
2021/01/02 10:22:46;;;;;;;36.67;19.52;;;;;;;3.48;63.33;99773.66;5070160;28;20369;-61
2021/01/02 10:25:13;;;;;;;34.75;18.95;;;;;;;3.32;63.42;99758.59;5069469;28;20040;-61
2021/01/02 10:27:39;;;;;;;35.60;18.10;;;;;;;3.30;63.39;99753.38;5052399;28;20377;-61
2021/01/02 10:30:08;;;;;;;38.13;19.88;;;;;;;3.51;63.47;99776.19;5064108;28;20422;-62
2021/01/02 10:32:34;;;;;;;33.35;18.13;;;;;;;3.49;63.22;99783.31;5068445;28;20029;-60
2021/01/02 10:34:59;;;;;;;33.15;18.30;;;;;;;3.45;62.99;99775.53;5051386;28;20094;-62
2021/01/02 10:37:29;;;;;;;36.30;18.92;;;;;;;3.43;63.36;99773.94;5070219;28;20044;-59
2021/01/02 10:39:55;;;;;;;34.17;17.90;;;;;;;3.43;63.27;99780.06;5070346;28;20040;-61
2021/01/02 10:42:25;;;;;;;36.95;19.60;;;;;;;3.44;63.19;99783.59;5069792;28;20572;-61
2021/01/02 10:44:51;;;;;;;33.60;18.65;;;;;;;3.44;63.27;99783.59;5069576;28;20033;-61
2021/01/02 10:47:19;;;;;;;32.13;18.77;;;;;;;3.43;63.35;99784.53;5069776;28;20114;-60
2021/01/02 10:49:45;;;;;;;37.65;20.25;;;;;;;3.27;63.29;99772.06;5069563;28;20131;-60
2021/01/02 10:52:10;;;;;;;34.00;19.38;;;;;;;3.35;63.60;99791.97;5069524;28;20115;-62
2021/01/02 10:54:36;;;;;;;37.38;19.00;;;;;;;3.28;63.84;99787.00;5051220;28;20123;-62
2021/01/02 10:57:01;;;;;;;34.97;17.40;;;;;;;3.30;63.91;99795.72;5069671;28;20039;-62
2021/01/02 10:59:27;;;;;;;35.50;18.10;;;;;;;3.34;63.49;99795.56;5069081;28;20032;-62
2021/01/02 11:01:54;;;;;;;35.70;19.17;;;;;;;3.32;63.76;99793.00;5069224;28;20044;-63
2021/01/02 11:04:24;;;;;;;34.40;19.15;;;;;;;3.33;63.32;99791.19;5068689;28;20036;-63
2021/01/02 11:06:51;;;;;;;39.15;19.73;;;;;;;2.92;63.60;99711.25;5068835;28;20079;-62
2021/01/02 11:09:18;;;;;;;37.78;19.23;;;;;;;3.40;63.29;99800.56;5069254;28;20090;-60
2021/01/02 11:11:43;;;;;;;38.60;20.17;;;;;;;3.34;63.06;99774.38;5068617;28;20041;-63
2021/01/02 11:14:10;;;;;;;34.67;18.77;;;;;;;3.39;63.29;99797.03;5068119;28;20408;-62
2021/01/02 11:16:38;;;;;;;37.88;20.00;;;;;;;3.42;63.71;99794.25;5068204;28;20044;-60
2021/01/02 11:19:12;;;;;;;32.42;18.80;;;;;;;3.46;63.42;99794.94;5068905;28;20519;-52
2021/01/02 11:21:38;;;;;;;31.70;17.88;;;;;;;3.43;63.84;99793.28;5068355;28;20044;-59
2021/01/02 11:24:04;;;;;;;33.92;19.35;;;;;;;3.40;63.72;99788.16;5068260;28;20476;-53
2021/01/02 11:26:30;;;;;;;37.40;18.27;;;;;;;3.38;63.58;99787.41;5068404;28;20150;-60
2021/01/02 11:28:55;;;;;;;34.00;19.00;;;;;;;3.50;63.54;99788.56;5068160;28;20036;-60
2021/01/02 11:31:32;;;;;;;38.47;19.80;;;;;;;3.56;63.40;99788.22;5067519;28;20119;-60
2021/01/02 11:33:57;;;;;;;33.25;18.58;;;;;;;3.56;63.39;99800.63;5068075;28;20506;-61
2021/01/02 11:36:23;;;;;;;36.53;19.63;;;;;;;3.42;62.95;99778.34;5068509;28;20040;-61
2021/01/02 11:38:49;;;;;;;37.63;19.35;;;;;;;3.48;63.63;99798.38;5067605;28;20050;-62
2021/01/02 11:41:16;;;;;;;35.60;19.15;;;;;;;3.47;63.63;99801.94;5068533;28;20033;-60
2021/01/02 11:43:42;;;;;;;36.17;20.27;;;;;;;3.51;63.71;99800.84;5068387;28;20044;-61